• Join FlightAware (Why Join?)
  • Login
  • US Flag 
10:55AM EDT


 

Airport Tracker/Info


-or-


 

Live Flight TrackerFlight Track Log ✈ VH-JJB ✈ 15-Sep-2013 ✈ YBAF - YBAF

Flight Track Log - Related Links

Times and Time Zones

All times are in EDT time to prevent confusion due to time zone crossing. See the VH-JJB flight status page for this flight to view local times or setup timezone preferences in your user account.

Time Position Orientation Groundspeed Altitude Reporting Facility
EDT Latitude Longitude Course Direction KTS MPH feet Rate Location/Type
11:12PM -27.5350 153.0136 North 81 93 700  Level Aus ATC (RADAR)
11:13PM -27.5229 153.0146 North 87 100 800 180 Climbing Aus ATC (RADAR)
11:14PM -27.5093 153.0177 11° North 87 100 900  Climbing Aus ATC (RADAR)
11:14PM -27.4930 153.0243 20° North 84 97 800 -120 Descending Aus ATC (RADAR)
11:15PM -27.4801 153.0304 23° Northeast 88 101 800  Level Aus ATC (RADAR)
11:15PM -27.4674 153.0349 17° North 93 107 800 60 Level Aus ATC (RADAR)
11:16PM -27.4582 153.0246 315° West 108 124 900 120 Climbing Aus ATC (RADAR)
11:17PM -27.4644 153.0059 249° West 107 123 1,000 -60 Climbing Aus ATC (RADAR)
11:18PM -27.4916 153.0255 147° Southeast 100 115 800  Descending Aus ATC (RADAR)
11:18PM -27.5046 153.0233 188° South 108 124 1,000 60 Climbing Aus ATC (RADAR)
11:19PM -27.5219 153.0206 188° South 109 125 900 -180 Descending Aus ATC (RADAR)
11:19PM -27.5461 153.0161 189° South 106 122 800 -300 Descending Aus ATC (RADAR)
11:20PM -27.5625 153.0089 201° Southwest 106 122 500 -720 Descending Aus ATC (RADAR)
11:20PM -27.5683 153.0050 211° Southwest 103 119 200  Descending Aus ATC (RADAR)
12:16AM -27.5185 153.0207 230° Southwest 1,000  Climbing Aus ATC (Calculated)
12:17AM -27.5227 153.0151 211° Southwest 85 98 700 -180 Descending Aus ATC (RADAR)
12:17AM -27.5049 153.0179 North 85 98 800 120 Climbing Aus ATC (RADAR)
12:18AM -27.4950 153.0220 20° North 89 102 900  Climbing Aus ATC (RADAR)
12:18AM -27.4814 153.0295 26° Northeast 93 107 800 -60 Descending Aus ATC (RADAR)
12:20AM -27.4611 153.0165 331° Northwest 110 127 800  Level Aus ATC (RADAR)
12:20AM -27.4639 153.0086 249° West 109 125 800  Level Aus ATC (RADAR)
12:20AM -27.4788 153.0191 148° Southeast 111 128 800  Level Aus ATC (RADAR)
12:21AM -27.5001 153.0164 186° South 105 121 800 120 Level Aus ATC (RADAR)
12:22AM -27.5136 153.0045 218° Southwest 103 119 1,000 60 Climbing Aus ATC (RADAR)
12:23AM -27.5372 153.0098 169° South 101 116 900 -240 Descending Aus ATC (RADAR)
12:23AM -27.5488 153.0108 176° South 99 114 700 -600 Descending Aus ATC (RADAR)
12:24AM -27.5689 153.0102 182° South 87 100 200 -660 Descending Aus ATC (RADAR)